sensor_id;sensor_type;location;lat;lon;timestamp;P1;durP1;ratioP1;P2;durP2;ratioP2
44722;SDS011;30451;48.638;10.624;2023-06-05T00:01:12;1.90;;;1.27;;
44722;SDS011;30451;48.638;10.624;2023-06-05T00:03:38;1.90;;;1.40;;
44722;SDS011;30451;48.638;10.624;2023-06-05T00:06:04;2.33;;;1.50;;
44722;SDS011;30451;48.638;10.624;2023-06-05T00:08:31;2.25;;;1.40;;
44722;SDS011;30451;48.638;10.624;2023-06-05T00:10:57;1.98;;;1.40;;
44722;SDS011;30451;48.638;10.624;2023-06-05T00:13:22;1.70;;;1.20;;
44722;SDS011;30451;48.638;10.624;2023-06-05T00:15:48;1.98;;;1.42;;
44722;SDS011;30451;48.638;10.624;2023-06-05T00:18:14;1.42;;;1.10;;
44722;SDS011;30451;48.638;10.624;2023-06-05T00:20:40;1.80;;;1.35;;
44722;SDS011;30451;48.638;10.624;2023-06-05T00:23:06;2.00;;;1.30;;
44722;SDS011;30451;48.638;10.624;2023-06-05T00:25:33;2.42;;;1.33;;
44722;SDS011;30451;48.638;10.624;2023-06-05T00:27:58;2.03;;;1.30;;
44722;SDS011;30451;48.638;10.624;2023-06-05T00:30:24;1.90;;;1.30;;
44722;SDS011;30451;48.638;10.624;2023-06-05T00:32:50;2.00;;;1.40;;
44722;SDS011;30451;48.638;10.624;2023-06-05T00:35:16;1.75;;;1.33;;
44722;SDS011;30451;48.638;10.624;2023-06-05T00:37:41;2.30;;;1.55;;
44722;SDS011;30451;48.638;10.624;2023-06-05T00:40:08;2.00;;;1.30;;
44722;SDS011;30451;48.638;10.624;2023-06-05T00:42:34;1.60;;;1.20;;
44722;SDS011;30451;48.638;10.624;2023-06-05T00:45:00;2.00;;;1.38;;
44722;SDS011;30451;48.638;10.624;2023-06-05T00:47:25;2.03;;;1.40;;
44722;SDS011;30451;48.638;10.624;2023-06-05T00:49:51;2.03;;;1.40;;
44722;SDS011;30451;48.638;10.624;2023-06-05T00:52:17;2.17;;;1.45;;
44722;SDS011;30451;48.638;10.624;2023-06-05T00:54:43;2.15;;;1.50;;
44722;SDS011;30451;48.638;10.624;2023-06-05T00:57:09;1.92;;;1.40;;
44722;SDS011;30451;48.638;10.624;2023-06-05T00:59:36;1.80;;;1.40;;
44722;SDS011;30451;48.638;10.624;2023-06-05T01:02:02;2.03;;;1.42;;
44722;SDS011;30451;48.638;10.624;2023-06-05T01:04:30;1.98;;;1.38;;
44722;SDS011;30451;48.638;10.624;2023-06-05T01:06:57;1.95;;;1.25;;
44722;SDS011;30451;48.638;10.624;2023-06-05T01:09:24;1.95;;;1.30;;
44722;SDS011;30451;48.638;10.624;2023-06-05T01:14:33;1.90;;;1.40;;
44722;SDS011;30451;48.638;10.624;2023-06-05T01:19:28;1.73;;;1.30;;
44722;SDS011;30451;48.638;10.624;2023-06-05T01:21:56;1.75;;;1.30;;
44722;SDS011;30451;48.638;10.624;2023-06-05T01:24:23;1.92;;;1.30;;
44722;SDS011;30451;48.638;10.624;2023-06-05T01:29:32;1.88;;;1.30;;
44722;SDS011;30451;48.638;10.624;2023-06-05T01:32:07;1.83;;;1.27;;
44722;SDS011;30451;48.638;10.624;2023-06-05T01:34:41;1.80;;;1.20;;
44722;SDS011;30451;48.638;10.624;2023-06-05T01:37:09;1.60;;;1.10;;
44722;SDS011;30451;48.638;10.624;2023-06-05T01:39:43;1.65;;;1.10;;
44722;SDS011;30451;48.638;10.624;2023-06-05T01:42:12;2.03;;;1.33;;
44722;SDS011;30451;48.638;10.624;2023-06-05T01:44:39;2.13;;;1.40;;
44722;SDS011;30451;48.638;10.624;2023-06-05T01:47:06;1.60;;;1.27;;
44722;SDS011;30451;48.638;10.624;2023-06-05T01:49:33;1.70;;;1.20;;
44722;SDS011;30451;48.638;10.624;2023-06-05T01:51:59;2.20;;;1.50;;
44722;SDS011;30451;48.638;10.624;2023-06-05T01:54:24;2.17;;;1.38;;
44722;SDS011;30451;48.638;10.624;2023-06-05T01:56:51;1.70;;;1.35;;
44722;SDS011;30451;48.638;10.624;2023-06-05T01:59:18;1.27;;;1.05;;
44722;SDS011;30451;48.638;10.624;2023-06-05T02:01:44;1.55;;;1.20;;
44722;SDS011;30451;48.638;10.624;2023-06-05T02:04:10;1.80;;;1.30;;
44722;SDS011;30451;48.638;10.624;2023-06-05T02:06:36;1.75;;;1.20;;
44722;SDS011;30451;48.638;10.624;2023-06-05T02:09:07;1.95;;;1.30;;
44722;SDS011;30451;48.638;10.624;2023-06-05T02:11:38;1.58;;;1.23;;
44722;SDS011;30451;48.638;10.624;2023-06-05T02:14:04;1.63;;;1.27;;
44722;SDS011;30451;48.638;10.624;2023-06-05T02:16:33;1.98;;;1.23;;
44722;SDS011;30451;48.638;10.624;2023-06-05T02:19:01;1.33;;;1.08;;
44722;SDS011;30451;48.638;10.624;2023-06-05T02:21:31;1.55;;;1.17;;
44722;SDS011;30451;48.638;10.624;2023-06-05T02:26:26;1.77;;;1.20;;
44722;SDS011;30451;48.638;10.624;2023-06-05T02:28:52;1.63;;;1.27;;
44722;SDS011;30451;48.638;10.624;2023-06-05T02:31:22;1.75;;;1.30;;
44722;SDS011;30451;48.638;10.624;2023-06-05T02:33:52;1.70;;;1.20;;
44722;SDS011;30451;48.638;10.624;2023-06-05T02:36:20;1.40;;;1.08;;
44722;SDS011;30451;48.638;10.624;2023-06-05T02:38:46;1.80;;;1.25;;
44722;SDS011;30451;48.638;10.624;2023-06-05T02:41:14;1.23;;;1.00;;
44722;SDS011;30451;48.638;10.624;2023-06-05T02:43:41;1.27;;;1.00;;
44722;SDS011;30451;48.638;10.624;2023-06-05T02:46:06;1.83;;;1.30;;
44722;SDS011;30451;48.638;10.624;2023-06-05T02:48:32;1.83;;;1.25;;
44722;SDS011;30451;48.638;10.624;2023-06-05T02:50:58;1.67;;;1.23;;
44722;SDS011;30451;48.638;10.624;2023-06-05T02:53:23;1.52;;;1.10;;
44722;SDS011;30451;48.638;10.624;2023-06-05T02:55:49;1.75;;;1.20;;
44722;SDS011;30451;48.638;10.624;2023-06-05T02:58:14;1.58;;;1.10;;
44722;SDS011;30451;48.638;10.624;2023-06-05T03:00:43;1.17;;;1.08;;
44722;SDS011;30451;48.638;10.624;2023-06-05T03:03:10;2.05;;;1.35;;
44722;SDS011;30451;48.638;10.624;2023-06-05T03:05:36;1.58;;;1.10;;
44722;SDS011;30451;48.638;10.624;2023-06-05T03:08:02;1.48;;;1.13;;
44722;SDS011;30451;48.638;10.624;2023-06-05T03:10:28;1.73;;;1.25;;
44722;SDS011;30451;48.638;10.624;2023-06-05T03:12:54;1.70;;;1.20;;
44722;SDS011;30451;48.638;10.624;2023-06-05T03:15:20;1.50;;;1.20;;
44722;SDS011;30451;48.638;10.624;2023-06-05T03:17:46;1.48;;;1.17;;
44722;SDS011;30451;48.638;10.624;2023-06-05T03:20:12;1.40;;;1.10;;
44722;SDS011;30451;48.638;10.624;2023-06-05T03:22:38;1.65;;;1.27;;
44722;SDS011;30451;48.638;10.624;2023-06-05T03:25:04;1.60;;;1.17;;
44722;SDS011;30451;48.638;10.624;2023-06-05T03:27:31;1.67;;;1.20;;
44722;SDS011;30451;48.638;10.624;2023-06-05T03:29:56;1.65;;;1.23;;
44722;SDS011;30451;48.638;10.624;2023-06-05T03:32:23;1.55;;;1.10;;
44722;SDS011;30451;48.638;10.624;2023-06-05T03:34:49;1.35;;;1.08;;
44722;SDS011;30451;48.638;10.624;2023-06-05T03:37:15;1.40;;;1.13;;
44722;SDS011;30451;48.638;10.624;2023-06-05T03:39:41;1.73;;;1.23;;
44722;SDS011;30451;48.638;10.624;2023-06-05T03:42:06;1.80;;;1.20;;
44722;SDS011;30451;48.638;10.624;2023-06-05T03:44:34;1.65;;;1.17;;
44722;SDS011;30451;48.638;10.624;2023-06-05T03:46:59;1.42;;;1.15;;
44722;SDS011;30451;48.638;10.624;2023-06-05T03:49:25;1.63;;;1.20;;
44722;SDS011;30451;48.638;10.624;2023-06-05T03:51:53;1.40;;;1.00;;
44722;SDS011;30451;48.638;10.624;2023-06-05T03:54:25;1.70;;;1.20;;
44722;SDS011;30451;48.638;10.624;2023-06-05T03:56:57;1.77;;;1.30;;
44722;SDS011;30451;48.638;10.624;2023-06-05T03:59:25;1.92;;;1.40;;
44722;SDS011;30451;48.638;10.624;2023-06-05T04:01:53;1.15;;;1.00;;
44722;SDS011;30451;48.638;10.624;2023-06-05T04:04:20;1.30;;;1.00;;
44722;SDS011;30451;48.638;10.624;2023-06-05T04:06:46;1.27;;;1.00;;
44722;SDS011;30451;48.638;10.624;2023-06-05T04:09:12;1.85;;;1.35;;
44722;SDS011;30451;48.638;10.624;2023-06-05T04:11:41;1.63;;;1.20;;
44722;SDS011;30451;48.638;10.624;2023-06-05T04:14:08;1.52;;;1.20;;
44722;SDS011;30451;48.638;10.624;2023-06-05T04:16:35;1.50;;;1.10;;
44722;SDS011;30451;48.638;10.624;2023-06-05T04:19:07;1.70;;;1.23;;
44722;SDS011;30451;48.638;10.624;2023-06-05T04:21:35;1.70;;;1.20;;
44722;SDS011;30451;48.638;10.624;2023-06-05T04:24:03;1.58;;;1.10;;
44722;SDS011;30451;48.638;10.624;2023-06-05T04:29:01;1.25;;;1.00;;
44722;SDS011;30451;48.638;10.624;2023-06-05T04:31:31;1.38;;;1.10;;
44722;SDS011;30451;48.638;10.624;2023-06-05T04:33:57;1.40;;;1.00;;
44722;SDS011;30451;48.638;10.624;2023-06-05T04:36:24;1.25;;;1.10;;
44722;SDS011;30451;48.638;10.624;2023-06-05T04:38:52;1.35;;;1.23;;
44722;SDS011;30451;48.638;10.624;2023-06-05T04:41:18;1.38;;;0.95;;
44722;SDS011;30451;48.638;10.624;2023-06-05T04:43:43;1.55;;;1.10;;
44722;SDS011;30451;48.638;10.624;2023-06-05T04:46:09;1.65;;;1.20;;
44722;SDS011;30451;48.638;10.624;2023-06-05T04:48:34;1.63;;;1.10;;
44722;SDS011;30451;48.638;10.624;2023-06-05T04:51:01;1.50;;;1.10;;
44722;SDS011;30451;48.638;10.624;2023-06-05T04:53:27;1.58;;;1.00;;
44722;SDS011;30451;48.638;10.624;2023-06-05T04:55:58;1.40;;;1.10;;
44722;SDS011;30451;48.638;10.624;2023-06-05T04:58:25;1.70;;;1.20;;
44722;SDS011;30451;48.638;10.624;2023-06-05T05:00:51;1.67;;;1.02;;
44722;SDS011;30451;48.638;10.624;2023-06-05T05:03:17;1.40;;;1.10;;
44722;SDS011;30451;48.638;10.624;2023-06-05T05:05:42;1.55;;;1.17;;
44722;SDS011;30451;48.638;10.624;2023-06-05T05:08:08;1.35;;;1.02;;
44722;SDS011;30451;48.638;10.624;2023-06-05T05:10:34;1.80;;;1.13;;
44722;SDS011;30451;48.638;10.624;2023-06-05T05:12:59;1.75;;;1.10;;
44722;SDS011;30451;48.638;10.624;2023-06-05T05:15:28;1.55;;;1.20;;
44722;SDS011;30451;48.638;10.624;2023-06-05T05:17:54;1.52;;;1.10;;
44722;SDS011;30451;48.638;10.624;2023-06-05T05:20:21;1.52;;;1.10;;
44722;SDS011;30451;48.638;10.624;2023-06-05T05:22:47;1.20;;;1.10;;
44722;SDS011;30451;48.638;10.624;2023-06-05T05:25:13;1.40;;;1.00;;
44722;SDS011;30451;48.638;10.624;2023-06-05T05:27:38;1.27;;;1.02;;
44722;SDS011;30451;48.638;10.624;2023-06-05T05:30:05;1.35;;;1.10;;
44722;SDS011;30451;48.638;10.624;2023-06-05T05:32:32;1.77;;;1.10;;
44722;SDS011;30451;48.638;10.624;2023-06-05T05:34:57;1.80;;;1.30;;
44722;SDS011;30451;48.638;10.624;2023-06-05T05:37:23;1.30;;;1.00;;
44722;SDS011;30451;48.638;10.624;2023-06-05T05:39:50;1.73;;;1.10;;
44722;SDS011;30451;48.638;10.624;2023-06-05T05:42:16;1.40;;;1.10;;
44722;SDS011;30451;48.638;10.624;2023-06-05T05:44:43;1.45;;;1.02;;
44722;SDS011;30451;48.638;10.624;2023-06-05T05:47:09;2.03;;;1.30;;
44722;SDS011;30451;48.638;10.624;2023-06-05T05:49:35;1.45;;;1.10;;
44722;SDS011;30451;48.638;10.624;2023-06-05T05:52:01;1.48;;;1.10;;
44722;SDS011;30451;48.638;10.624;2023-06-05T05:54:27;1.35;;;1.00;;
44722;SDS011;30451;48.638;10.624;2023-06-05T05:56:53;1.70;;;1.10;;
44722;SDS011;30451;48.638;10.624;2023-06-05T05:59:19;1.55;;;1.15;;
44722;SDS011;30451;48.638;10.624;2023-06-05T06:01:45;1.70;;;1.20;;
44722;SDS011;30451;48.638;10.624;2023-06-05T06:04:11;1.38;;;1.00;;
44722;SDS011;30451;48.638;10.624;2023-06-05T06:06:37;1.40;;;1.10;;
44722;SDS011;30451;48.638;10.624;2023-06-05T06:09:04;1.35;;;1.10;;
44722;SDS011;30451;48.638;10.624;2023-06-05T06:11:33;1.60;;;1.10;;
44722;SDS011;30451;48.638;10.624;2023-06-05T06:13:59;1.67;;;1.20;;
44722;SDS011;30451;48.638;10.624;2023-06-05T06:16:25;1.50;;;1.10;;
44722;SDS011;30451;48.638;10.624;2023-06-05T06:18:51;1.48;;;1.10;;
44722;SDS011;30451;48.638;10.624;2023-06-05T06:21:17;1.10;;;1.00;;
44722;SDS011;30451;48.638;10.624;2023-06-05T06:23:43;1.42;;;1.10;;
44722;SDS011;30451;48.638;10.624;2023-06-05T06:26:10;1.67;;;1.20;;
44722;SDS011;30451;48.638;10.624;2023-06-05T06:28:36;1.88;;;1.20;;
44722;SDS011;30451;48.638;10.624;2023-06-05T06:31:02;1.52;;;1.15;;
44722;SDS011;30451;48.638;10.624;2023-06-05T06:33:28;1.75;;;1.02;;
44722;SDS011;30451;48.638;10.624;2023-06-05T06:35:54;1.52;;;1.13;;
44722;SDS011;30451;48.638;10.624;2023-06-05T06:38:23;1.80;;;1.20;;
44722;SDS011;30451;48.638;10.624;2023-06-05T06:40:54;1.65;;;1.10;;
44722;SDS011;30451;48.638;10.624;2023-06-05T06:43:21;1.23;;;1.05;;
44722;SDS011;30451;48.638;10.624;2023-06-05T06:45:47;1.60;;;1.20;;
44722;SDS011;30451;48.638;10.624;2023-06-05T06:48:14;1.75;;;1.25;;
44722;SDS011;30451;48.638;10.624;2023-06-05T06:50:41;1.40;;;1.10;;
44722;SDS011;30451;48.638;10.624;2023-06-05T06:53:07;1.50;;;1.20;;
44722;SDS011;30451;48.638;10.624;2023-06-05T06:55:33;1.88;;;1.30;;
44722;SDS011;30451;48.638;10.624;2023-06-05T06:57:59;1.35;;;1.10;;
44722;SDS011;30451;48.638;10.624;2023-06-05T07:00:25;1.40;;;1.17;;
44722;SDS011;30451;48.638;10.624;2023-06-05T07:02:50;1.50;;;1.08;;
44722;SDS011;30451;48.638;10.624;2023-06-05T07:05:16;1.60;;;1.15;;
44722;SDS011;30451;48.638;10.624;2023-06-05T07:07:44;1.67;;;1.30;;
44722;SDS011;30451;48.638;10.624;2023-06-05T07:10:10;1.65;;;1.20;;
44722;SDS011;30451;48.638;10.624;2023-06-05T07:12:36;1.30;;;1.10;;
44722;SDS011;30451;48.638;10.624;2023-06-05T07:15:02;1.63;;;1.10;;
44722;SDS011;30451;48.638;10.624;2023-06-05T07:17:27;1.50;;;1.02;;
44722;SDS011;30451;48.638;10.624;2023-06-05T07:19:55;2.35;;;1.10;;
44722;SDS011;30451;48.638;10.624;2023-06-05T07:22:21;1.70;;;1.20;;
44722;SDS011;30451;48.638;10.624;2023-06-05T07:24:49;1.33;;;1.10;;
44722;SDS011;30451;48.638;10.624;2023-06-05T07:27:15;1.80;;;1.20;;
44722;SDS011;30451;48.638;10.624;2023-06-05T07:29:41;1.33;;;0.93;;
44722;SDS011;30451;48.638;10.624;2023-06-05T07:32:07;2.13;;;1.20;;
44722;SDS011;30451;48.638;10.624;2023-06-05T07:34:33;1.60;;;1.20;;
44722;SDS011;30451;48.638;10.624;2023-06-05T07:37:02;1.52;;;1.20;;
44722;SDS011;30451;48.638;10.624;2023-06-05T07:39:28;1.15;;;1.05;;
44722;SDS011;30451;48.638;10.624;2023-06-05T07:41:53;1.50;;;1.10;;
44722;SDS011;30451;48.638;10.624;2023-06-05T07:44:19;1.70;;;1.20;;
44722;SDS011;30451;48.638;10.624;2023-06-05T07:46:46;1.58;;;1.20;;
44722;SDS011;30451;48.638;10.624;2023-06-05T07:49:13;1.60;;;1.17;;
44722;SDS011;30451;48.638;10.624;2023-06-05T07:51:40;1.63;;;1.17;;
44722;SDS011;30451;48.638;10.624;2023-06-05T07:54:08;1.73;;;1.20;;
44722;SDS011;30451;48.638;10.624;2023-06-05T07:56:35;1.40;;;1.10;;
44722;SDS011;30451;48.638;10.624;2023-06-05T07:59:02;1.65;;;1.20;;
44722;SDS011;30451;48.638;10.624;2023-06-05T08:01:31;1.42;;;1.08;;
44722;SDS011;30451;48.638;10.624;2023-06-05T08:04:10;1.50;;;1.05;;
44722;SDS011;30451;48.638;10.624;2023-06-05T08:06:36;1.70;;;1.20;;
44722;SDS011;30451;48.638;10.624;2023-06-05T08:09:07;2.13;;;1.30;;
44722;SDS011;30451;48.638;10.624;2023-06-05T08:11:35;1.58;;;1.30;;
44722;SDS011;30451;48.638;10.624;2023-06-05T08:14:02;1.73;;;1.20;;
44722;SDS011;30451;48.638;10.624;2023-06-05T08:16:28;2.00;;;1.20;;
44722;SDS011;30451;48.638;10.624;2023-06-05T08:18:54;1.65;;;1.15;;
44722;SDS011;30451;48.638;10.624;2023-06-05T08:21:20;1.23;;;1.05;;
44722;SDS011;30451;48.638;10.624;2023-06-05T08:23:46;1.60;;;1.20;;
44722;SDS011;30451;48.638;10.624;2023-06-05T08:26:11;1.40;;;1.20;;
44722;SDS011;30451;48.638;10.624;2023-06-05T08:28:37;1.73;;;1.15;;
44722;SDS011;30451;48.638;10.624;2023-06-05T08:31:04;1.70;;;1.15;;
44722;SDS011;30451;48.638;10.624;2023-06-05T08:33:31;1.90;;;1.20;;
44722;SDS011;30451;48.638;10.624;2023-06-05T08:35:58;1.90;;;1.38;;
44722;SDS011;30451;48.638;10.624;2023-06-05T08:38:23;1.75;;;1.20;;
44722;SDS011;30451;48.638;10.624;2023-06-05T08:40:51;1.50;;;1.10;;
44722;SDS011;30451;48.638;10.624;2023-06-05T08:43:24;1.75;;;1.17;;
44722;SDS011;30451;48.638;10.624;2023-06-05T08:45:50;1.73;;;1.20;;
44722;SDS011;30451;48.638;10.624;2023-06-05T08:48:17;1.90;;;1.20;;
44722;SDS011;30451;48.638;10.624;2023-06-05T08:50:45;1.73;;;1.23;;
44722;SDS011;30451;48.638;10.624;2023-06-05T08:53:12;1.30;;;1.08;;
44722;SDS011;30451;48.638;10.624;2023-06-05T08:55:41;1.63;;;1.20;;
44722;SDS011;30451;48.638;10.624;2023-06-05T08:58:09;1.90;;;1.25;;
44722;SDS011;30451;48.638;10.624;2023-06-05T09:00:37;1.48;;;1.10;;
44722;SDS011;30451;48.638;10.624;2023-06-05T09:03:03;1.40;;;1.10;;
44722;SDS011;30451;48.638;10.624;2023-06-05T09:05:29;1.75;;;1.10;;
44722;SDS011;30451;48.638;10.624;2023-06-05T09:07:54;1.63;;;1.25;;
44722;SDS011;30451;48.638;10.624;2023-06-05T09:10:23;1.70;;;1.08;;
44722;SDS011;30451;48.638;10.624;2023-06-05T09:12:53;1.38;;;1.10;;
44722;SDS011;30451;48.638;10.624;2023-06-05T09:15:23;1.85;;;1.27;;
44722;SDS011;30451;48.638;10.624;2023-06-05T09:18:06;1.58;;;1.17;;
44722;SDS011;30451;48.638;10.624;2023-06-05T09:20:35;1.90;;;1.30;;
44722;SDS011;30451;48.638;10.624;2023-06-05T09:23:21;1.90;;;1.30;;
44722;SDS011;30451;48.638;10.624;2023-06-05T09:25:52;1.48;;;1.10;;
44722;SDS011;30451;48.638;10.624;2023-06-05T09:28:19;1.85;;;1.30;;
44722;SDS011;30451;48.638;10.624;2023-06-05T09:30:55;1.48;;;1.20;;
44722;SDS011;30451;48.638;10.624;2023-06-05T09:33:23;1.58;;;1.17;;
44722;SDS011;30451;48.638;10.624;2023-06-05T09:36:02;1.65;;;1.15;;
44722;SDS011;30451;48.638;10.624;2023-06-05T09:38:33;1.90;;;1.33;;
44722;SDS011;30451;48.638;10.624;2023-06-05T09:41:09;1.77;;;1.30;;
44722;SDS011;30451;48.638;10.624;2023-06-05T09:43:36;1.98;;;1.30;;
44722;SDS011;30451;48.638;10.624;2023-06-05T09:46:10;1.35;;;1.00;;
44722;SDS011;30451;48.638;10.624;2023-06-05T09:48:39;1.98;;;1.15;;
44722;SDS011;30451;48.638;10.624;2023-06-05T09:51:10;1.55;;;1.13;;
44722;SDS011;30451;48.638;10.624;2023-06-05T09:56:14;1.70;;;1.20;;
44722;SDS011;30451;48.638;10.624;2023-06-05T09:58:47;1.92;;;1.40;;
44722;SDS011;30451;48.638;10.624;2023-06-05T10:01:15;2.15;;;1.33;;
44722;SDS011;30451;48.638;10.624;2023-06-05T10:03:48;2.00;;;1.30;;
44722;SDS011;30451;48.638;10.624;2023-06-05T10:06:22;2.00;;;1.27;;
44722;SDS011;30451;48.638;10.624;2023-06-05T10:08:53;1.92;;;1.40;;
44722;SDS011;30451;48.638;10.624;2023-06-05T10:11:20;1.98;;;1.30;;
44722;SDS011;30451;48.638;10.624;2023-06-05T10:13:47;2.20;;;1.50;;
44722;SDS011;30451;48.638;10.624;2023-06-05T10:16:14;1.63;;;1.30;;
44722;SDS011;30451;48.638;10.624;2023-06-05T10:18:41;2.25;;;1.40;;
44722;SDS011;30451;48.638;10.624;2023-06-05T10:21:06;1.55;;;1.20;;
44722;SDS011;30451;48.638;10.624;2023-06-05T10:23:33;1.48;;;1.20;;
44722;SDS011;30451;48.638;10.624;2023-06-05T10:26:00;2.13;;;1.50;;
44722;SDS011;30451;48.638;10.624;2023-06-05T10:31:20;1.50;;;1.20;;
44722;SDS011;30451;48.638;10.624;2023-06-05T10:34:18;2.22;;;1.25;;
44722;SDS011;30451;48.638;10.624;2023-06-05T10:39:25;1.92;;;1.17;;
44722;SDS011;30451;48.638;10.624;2023-06-05T10:41:53;1.70;;;1.30;;
44722;SDS011;30451;48.638;10.624;2023-06-05T10:44:29;2.00;;;1.25;;
44722;SDS011;30451;48.638;10.624;2023-06-05T10:47:29;2.10;;;1.23;;
44722;SDS011;30451;48.638;10.624;2023-06-05T10:52:43;1.77;;;1.20;;
44722;SDS011;30451;48.638;10.624;2023-06-05T10:55:13;2.00;;;1.40;;
44722;SDS011;30451;48.638;10.624;2023-06-05T10:58:24;1.92;;;1.35;;
44722;SDS011;30451;48.638;10.624;2023-06-05T11:00:33;2.03;;;1.40;;
44722;SDS011;30451;48.638;10.624;2023-06-05T11:03:00;2.00;;;1.38;;
44722;SDS011;30451;48.638;10.624;2023-06-05T11:05:26;2.20;;;1.40;;
44722;SDS011;30451;48.638;10.624;2023-06-05T11:11:01;2.40;;;1.40;;
44722;SDS011;30451;48.638;10.624;2023-06-05T11:16:29;1.98;;;1.50;;
44722;SDS011;30451;48.638;10.624;2023-06-05T11:22:02;2.38;;;1.38;;
44722;SDS011;30451;48.638;10.624;2023-06-05T11:24:27;1.80;;;1.20;;
44722;SDS011;30451;48.638;10.624;2023-06-05T11:26:53;2.20;;;1.50;;
44722;SDS011;30451;48.638;10.624;2023-06-05T11:29:19;1.73;;;1.30;;
44722;SDS011;30451;48.638;10.624;2023-06-05T11:31:45;2.03;;;1.50;;
44722;SDS011;30451;48.638;10.624;2023-06-05T11:34:11;1.95;;;1.30;;
44722;SDS011;30451;48.638;10.624;2023-06-05T11:36:38;1.92;;;1.35;;
44722;SDS011;30451;48.638;10.624;2023-06-05T11:39:04;1.85;;;1.38;;
44722;SDS011;30451;48.638;10.624;2023-06-05T11:41:30;1.80;;;1.30;;
44722;SDS011;30451;48.638;10.624;2023-06-05T11:43:56;2.67;;;1.48;;
44722;SDS011;30451;48.638;10.624;2023-06-05T11:46:35;2.25;;;1.63;;
44722;SDS011;30451;48.638;10.624;2023-06-05T11:49:05;2.03;;;1.50;;
44722;SDS011;30451;48.638;10.624;2023-06-05T11:51:34;1.90;;;1.40;;
44722;SDS011;30451;48.638;10.624;2023-06-05T11:54:02;2.08;;;1.60;;
44722;SDS011;30451;48.638;10.624;2023-06-05T11:56:29;2.00;;;1.48;;
44722;SDS011;30451;48.638;10.624;2023-06-05T11:58:58;1.95;;;1.40;;
44722;SDS011;30451;48.638;10.624;2023-06-05T12:01:24;1.90;;;1.30;;
44722;SDS011;30451;48.638;10.624;2023-06-05T12:04:03;1.85;;;1.38;;
44722;SDS011;30451;48.638;10.624;2023-06-05T12:06:30;1.95;;;1.50;;
44722;SDS011;30451;48.638;10.624;2023-06-05T12:09:09;2.10;;;1.38;;
44722;SDS011;30451;48.638;10.624;2023-06-05T12:11:36;1.42;;;1.33;;
44722;SDS011;30451;48.638;10.624;2023-06-05T12:14:03;2.00;;;1.48;;
44722;SDS011;30451;48.638;10.624;2023-06-05T12:16:32;1.90;;;1.40;;
44722;SDS011;30451;48.638;10.624;2023-06-05T12:19:00;2.28;;;1.30;;
44722;SDS011;30451;48.638;10.624;2023-06-05T12:21:39;2.30;;;1.63;;
44722;SDS011;30451;48.638;10.624;2023-06-05T12:24:06;1.80;;;1.40;;
44722;SDS011;30451;48.638;10.624;2023-06-05T12:29:18;1.95;;;1.40;;
44722;SDS011;30451;48.638;10.624;2023-06-05T12:31:46;1.95;;;1.50;;
44722;SDS011;30451;48.638;10.624;2023-06-05T12:34:12;2.22;;;1.55;;
44722;SDS011;30451;48.638;10.624;2023-06-05T12:36:38;1.95;;;1.38;;
44722;SDS011;30451;48.638;10.624;2023-06-05T12:39:06;2.08;;;1.48;;
44722;SDS011;30451;48.638;10.624;2023-06-05T12:41:32;2.13;;;1.50;;
44722;SDS011;30451;48.638;10.624;2023-06-05T12:44:03;2.13;;;1.58;;
44722;SDS011;30451;48.638;10.624;2023-06-05T12:46:30;2.03;;;1.40;;
44722;SDS011;30451;48.638;10.624;2023-06-05T12:48:57;1.98;;;1.45;;
44722;SDS011;30451;48.638;10.624;2023-06-05T12:51:24;1.98;;;1.40;;
44722;SDS011;30451;48.638;10.624;2023-06-05T12:53:53;1.90;;;1.40;;
44722;SDS011;30451;48.638;10.624;2023-06-05T12:56:19;2.10;;;1.50;;
44722;SDS011;30451;48.638;10.624;2023-06-05T12:58:55;1.80;;;1.40;;
44722;SDS011;30451;48.638;10.624;2023-06-05T13:01:23;2.72;;;1.58;;
44722;SDS011;30451;48.638;10.624;2023-06-05T13:03:50;2.00;;;1.50;;
44722;SDS011;30451;48.638;10.624;2023-06-05T13:06:16;2.40;;;1.60;;
44722;SDS011;30451;48.638;10.624;2023-06-05T13:08:42;1.90;;;1.45;;
44722;SDS011;30451;48.638;10.624;2023-06-05T13:11:08;2.60;;;1.80;;
44722;SDS011;30451;48.638;10.624;2023-06-05T13:13:33;2.10;;;1.40;;
44722;SDS011;30451;48.638;10.624;2023-06-05T13:16:00;2.10;;;1.48;;
44722;SDS011;30451;48.638;10.624;2023-06-05T13:18:27;2.15;;;1.30;;
44722;SDS011;30451;48.638;10.624;2023-06-05T13:20:53;2.30;;;1.55;;
44722;SDS011;30451;48.638;10.624;2023-06-05T13:23:19;2.22;;;1.60;;
44722;SDS011;30451;48.638;10.624;2023-06-05T13:25:45;2.20;;;1.50;;
44722;SDS011;30451;48.638;10.624;2023-06-05T13:28:11;2.90;;;1.60;;
44722;SDS011;30451;48.638;10.624;2023-06-05T13:30:37;3.13;;;1.65;;
44722;SDS011;30451;48.638;10.624;2023-06-05T13:33:02;2.60;;;1.77;;
44722;SDS011;30451;48.638;10.624;2023-06-05T13:35:28;2.58;;;1.65;;
44722;SDS011;30451;48.638;10.624;2023-06-05T13:37:53;2.80;;;1.63;;
44722;SDS011;30451;48.638;10.624;2023-06-05T13:40:19;2.50;;;1.65;;
44722;SDS011;30451;48.638;10.624;2023-06-05T13:42:45;2.88;;;1.80;;
44722;SDS011;30451;48.638;10.624;2023-06-05T13:45:10;2.30;;;1.80;;
44722;SDS011;30451;48.638;10.624;2023-06-05T13:47:36;2.85;;;1.70;;
44722;SDS011;30451;48.638;10.624;2023-06-05T13:50:03;2.47;;;1.70;;
44722;SDS011;30451;48.638;10.624;2023-06-05T13:52:29;2.58;;;1.83;;
44722;SDS011;30451;48.638;10.624;2023-06-05T13:54:55;2.42;;;1.55;;
44722;SDS011;30451;48.638;10.624;2023-06-05T13:57:21;3.22;;;1.75;;
44722;SDS011;30451;48.638;10.624;2023-06-05T13:59:47;2.72;;;1.80;;
44722;SDS011;30451;48.638;10.624;2023-06-05T14:02:13;2.58;;;1.77;;
44722;SDS011;30451;48.638;10.624;2023-06-05T14:04:38;2.60;;;1.75;;
44722;SDS011;30451;48.638;10.624;2023-06-05T14:07:04;3.05;;;1.95;;
44722;SDS011;30451;48.638;10.624;2023-06-05T14:09:30;2.20;;;1.80;;
44722;SDS011;30451;48.638;10.624;2023-06-05T14:11:56;2.45;;;1.67;;
44722;SDS011;30451;48.638;10.624;2023-06-05T14:14:23;3.08;;;1.80;;
44722;SDS011;30451;48.638;10.624;2023-06-05T14:16:49;2.53;;;1.80;;
44722;SDS011;30451;48.638;10.624;2023-06-05T14:19:15;1.88;;;1.40;;
44722;SDS011;30451;48.638;10.624;2023-06-05T14:21:41;2.83;;;1.80;;
44722;SDS011;30451;48.638;10.624;2023-06-05T14:24:08;2.28;;;1.50;;
44722;SDS011;30451;48.638;10.624;2023-06-05T14:26:33;2.10;;;1.50;;
44722;SDS011;30451;48.638;10.624;2023-06-05T14:28:59;2.13;;;1.60;;
44722;SDS011;30451;48.638;10.624;2023-06-05T14:31:25;2.80;;;1.70;;
44722;SDS011;30451;48.638;10.624;2023-06-05T14:33:52;2.65;;;1.60;;
44722;SDS011;30451;48.638;10.624;2023-06-05T14:36:18;2.80;;;1.88;;
44722;SDS011;30451;48.638;10.624;2023-06-05T14:38:44;2.25;;;1.70;;
44722;SDS011;30451;48.638;10.624;2023-06-05T14:41:10;2.25;;;1.60;;
44722;SDS011;30451;48.638;10.624;2023-06-05T14:43:36;2.75;;;1.80;;
44722;SDS011;30451;48.638;10.624;2023-06-05T14:46:02;2.72;;;1.90;;
44722;SDS011;30451;48.638;10.624;2023-06-05T14:48:28;2.50;;;1.80;;
44722;SDS011;30451;48.638;10.624;2023-06-05T14:50:53;2.17;;;1.60;;
44722;SDS011;30451;48.638;10.624;2023-06-05T14:53:20;2.42;;;1.80;;
44722;SDS011;30451;48.638;10.624;2023-06-05T14:55:46;2.20;;;1.35;;
44722;SDS011;30451;48.638;10.624;2023-06-05T14:58:12;3.40;;;1.80;;
44722;SDS011;30451;48.638;10.624;2023-06-05T15:00:38;2.70;;;1.80;;
44722;SDS011;30451;48.638;10.624;2023-06-05T15:03:03;2.42;;;1.73;;
44722;SDS011;30451;48.638;10.624;2023-06-05T15:05:30;2.58;;;1.65;;
44722;SDS011;30451;48.638;10.624;2023-06-05T15:07:56;2.63;;;1.80;;
44722;SDS011;30451;48.638;10.624;2023-06-05T15:10:23;2.65;;;1.85;;